Time;durP1;ratioP1;P1;durP2;ratioP2;P2;SDS_P1;SDS_P2;PMS_P1;PMS_P2;Temp;Humidity;BMP_temperature;BMP_pressure;BME280_temperature;BME280_humidity;BME280_pressure;Samples;Min_cycle;Max_cycle;Signal;HPM_P1;HPM_P2
2023/10/05 00:01:17;;;;;;;4.27;2.57;;;;;;;;;;5050519;28;20717;-88
2023/10/05 00:03:44;;;;;;;4.17;1.80;;;;;;;;;;5048507;28;20207;-89
2023/10/05 00:06:23;;;;;;;4.83;1.70;;;;;;;;;;5050873;28;20180;-88
2023/10/05 00:08:49;;;;;;;1.97;1.73;;;;;;;;;;5046535;28;20234;-88
2023/10/05 00:11:23;;;;;;;4.33;1.77;;;;;;;;;;5047924;28;20173;-88
2023/10/05 00:13:52;;;;;;;3.30;2.03;;;;;;;;;;5045701;28;20183;-87
2023/10/05 00:16:20;;;;;;;2.60;1.70;;;;;;;;;;5048037;28;20195;-88
2023/10/05 00:18:46;;;;;;;3.37;1.53;;;;;;;;;;5048328;28;20194;-88
2023/10/05 00:21:11;;;;;;;3.17;1.80;;;;;;;;;;5050465;28;20179;-88
2023/10/05 00:23:36;;;;;;;4.73;1.70;;;;;;;;;;5047446;28;20182;-88
2023/10/05 00:26:02;;;;;;;3.03;1.97;;;;;;;;;;5048266;28;20184;-89
2023/10/05 00:28:27;;;;;;;4.10;2.20;;;;;;;;;;5046963;28;20218;-89
2023/10/05 00:30:54;;;;;;;2.40;1.80;;;;;;;;;;5045776;28;20240;-88
2023/10/05 00:33:20;;;;;;;4.37;1.90;;;;;;;;;;5048479;28;20248;-88
2023/10/05 00:35:46;;;;;;;2.30;1.70;;;;;;;;;;5044281;28;21774;-88
2023/10/05 00:38:16;;;;;;;3.80;1.83;;;;;;;;;;5045127;28;20175;-88
2023/10/05 00:40:58;;;;;;;2.83;1.90;;;;;;;;;;5044172;28;20183;-88
2023/10/05 00:43:24;;;;;;;4.23;2.50;;;;;;;;;;5044833;28;20167;-89
2023/10/05 00:45:50;;;;;;;3.13;1.83;;;;;;;;;;5047739;28;20284;-88
2023/10/05 00:48:35;;;;;;;3.27;1.93;;;;;;;;;;5047380;28;20239;-88
2023/10/05 00:51:04;;;;;;;3.30;1.70;;;;;;;;;;5060834;28;20180;-90
2023/10/05 00:53:30;;;;;;;2.93;1.83;;;;;;;;;;5045785;28;20182;-88
2023/10/05 00:56:09;;;;;;;4.03;1.90;;;;;;;;;;5045617;28;20177;-88
2023/10/05 00:58:37;;;;;;;4.60;2.10;;;;;;;;;;5048325;28;20204;-88
2023/10/05 01:01:07;;;;;;;2.57;1.70;;;;;;;;;;5039403;28;20172;-89
2023/10/05 01:03:47;;;;;;;2.60;1.77;;;;;;;;;;5041668;28;20183;-89
2023/10/05 01:06:25;;;;;;;3.13;1.83;;;;;;;;;;5043485;28;20209;-88
2023/10/05 01:08:54;;;;;;;2.73;2.10;;;;;;;;;;5042433;28;20202;-88
2023/10/05 01:11:31;;;;;;;3.57;2.23;;;;;;;;;;5039011;28;20225;-89
2023/10/05 01:13:56;;;;;;;4.30;1.80;;;;;;;;;;5044021;28;20252;-89
2023/10/05 01:16:22;;;;;;;3.40;2.10;;;;;;;;;;5048619;28;20185;-89
2023/10/05 01:18:47;;;;;;;3.07;1.83;;;;;;;;;;5047354;28;20185;-89
2023/10/05 01:21:13;;;;;;;4.17;1.70;;;;;;;;;;5041906;28;20171;-88
2023/10/05 01:23:38;;;;;;;4.13;1.80;;;;;;;;;;5048296;28;20175;-89
2023/10/05 01:26:08;;;;;;;3.40;1.73;;;;;;;;;;5047981;28;20182;-88
2023/10/05 01:28:34;;;;;;;2.60;2.07;;;;;;;;;;5037445;28;20270;-90
2023/10/05 01:31:04;;;;;;;3.23;1.70;;;;;;;;;;5043979;28;20257;-88
2023/10/05 01:33:29;;;;;;;3.20;1.80;;;;;;;;;;5046657;28;20551;-88
2023/10/05 01:35:55;;;;;;;2.80;2.00;;;;;;;;;;5044741;28;20174;-88
2023/10/05 01:38:20;;;;;;;3.60;1.93;;;;;;;;;;5039295;28;20252;-88
2023/10/05 01:40:49;;;;;;;2.27;1.60;;;;;;;;;;5045173;28;20252;-89
2023/10/05 01:43:15;;;;;;;2.37;1.60;;;;;;;;;;5048252;28;20221;-88
2023/10/05 01:45:43;;;;;;;1.70;1.60;;;;;;;;;;5044339;28;20221;-89
2023/10/05 01:48:12;;;;;;;4.53;1.87;;;;;;;;;;5045002;28;20187;-89
2023/10/05 01:50:39;;;;;;;6.67;2.07;;;;;;;;;;5048465;28;20196;-88
2023/10/05 01:53:08;;;;;;;3.07;1.77;;;;;;;;;;5045955;28;20166;-88
2023/10/05 01:55:34;;;;;;;1.97;1.57;;;;;;;;;;5043654;28;20251;-88
2023/10/05 01:58:00;;;;;;;3.43;2.00;;;;;;;;;;5039721;28;20271;-89
2023/10/05 02:00:25;;;;;;;4.93;1.80;;;;;;;;;;5048641;28;20178;-88
2023/10/05 02:02:52;;;;;;;2.87;1.63;;;;;;;;;;5047361;28;20460;-88
2023/10/05 02:05:20;;;;;;;4.53;2.23;;;;;;;;;;5049519;28;20176;-89
2023/10/05 02:07:46;;;;;;;3.63;2.10;;;;;;;;;;5046669;28;20194;-88
2023/10/05 02:10:13;;;;;;;2.60;2.00;;;;;;;;;;5041337;28;20200;-89
2023/10/05 02:12:39;;;;;;;3.37;1.80;;;;;;;;;;5043820;28;20177;-89
2023/10/05 02:15:12;;;;;;;5.20;2.37;;;;;;;;;;5046098;28;20240;-89
2023/10/05 02:17:42;;;;;;;2.00;1.70;;;;;;;;;;5044456;28;20181;-89
2023/10/05 02:20:12;;;;;;;4.60;2.20;;;;;;;;;;5046781;28;20188;-88
2023/10/05 02:22:40;;;;;;;2.63;1.60;;;;;;;;;;5046188;28;20211;-89
2023/10/05 02:25:08;;;;;;;2.87;1.70;;;;;;;;;;5045475;28;20184;-88
2023/10/05 02:27:46;;;;;;;2.30;1.60;;;;;;;;;;5039479;28;20213;-88
2023/10/05 02:30:11;;;;;;;2.47;1.60;;;;;;;;;;5042772;28;20208;-89
2023/10/05 02:32:37;;;;;;;3.60;2.03;;;;;;;;;;5043020;28;20182;-88
2023/10/05 02:35:18;;;;;;;2.50;1.73;;;;;;;;;;5044649;28;20246;-88
2023/10/05 02:37:47;;;;;;;3.90;1.83;;;;;;;;;;5041581;28;20190;-88
2023/10/05 02:40:12;;;;;;;2.87;1.87;;;;;;;;;;5043581;28;20233;-88
2023/10/05 02:42:39;;;;;;;2.27;1.80;;;;;;;;;;5036422;28;20394;-88
2023/10/05 02:45:05;;;;;;;5.37;2.10;;;;;;;;;;5047239;28;20283;-88
2023/10/05 02:47:31;;;;;;;4.07;2.27;;;;;;;;;;5044564;28;20192;-88
2023/10/05 02:49:57;;;;;;;4.53;2.33;;;;;;;;;;5043011;28;20204;-89
2023/10/05 02:52:23;;;;;;;3.03;1.83;;;;;;;;;;5041779;28;20218;-89
2023/10/05 02:54:48;;;;;;;4.80;2.00;;;;;;;;;;5045748;28;20234;-88
2023/10/05 02:57:16;;;;;;;4.53;2.30;;;;;;;;;;5048859;28;20246;-89
2023/10/05 02:59:41;;;;;;;3.50;2.00;;;;;;;;;;5042653;28;20212;-88
2023/10/05 03:02:07;;;;;;;2.23;2.03;;;;;;;;;;5041628;28;20244;-88
2023/10/05 03:04:44;;;;;;;4.00;2.00;;;;;;;;;;5043949;28;20281;-89
2023/10/05 03:07:10;;;;;;;3.20;1.90;;;;;;;;;;5038843;28;20189;-88
2023/10/05 03:09:35;;;;;;;3.90;2.30;;;;;;;;;;5041368;28;20203;-89
2023/10/05 03:12:00;;;;;;;2.57;2.37;;;;;;;;;;5044538;28;20188;-89
2023/10/05 03:14:27;;;;;;;4.90;2.20;;;;;;;;;;5042642;28;20190;-89
2023/10/05 03:16:56;;;;;;;3.60;1.70;;;;;;;;;;5044572;28;20182;-88
2023/10/05 03:19:22;;;;;;;4.33;1.90;;;;;;;;;;5043786;28;20183;-88
2023/10/05 03:21:48;;;;;;;2.37;2.00;;;;;;;;;;5046357;28;20201;-89
2023/10/05 03:24:16;;;;;;;2.07;1.87;;;;;;;;;;5046938;28;20180;-89
2023/10/05 03:26:42;;;;;;;5.03;2.03;;;;;;;;;;5040673;28;20190;-89
2023/10/05 03:29:16;;;;;;;4.23;2.47;;;;;;;;;;5045065;28;20217;-89
2023/10/05 03:31:52;;;;;;;5.77;2.27;;;;;;;;;;5044003;28;20205;-89
2023/10/05 03:34:18;;;;;;;3.20;2.03;;;;;;;;;;5040071;28;20184;-88
2023/10/05 03:36:47;;;;;;;1.80;1.70;;;;;;;;;;5035116;28;20185;-90
2023/10/05 03:39:12;;;;;;;2.53;2.03;;;;;;;;;;5047013;28;20190;-88
2023/10/05 03:41:38;;;;;;;4.50;2.07;;;;;;;;;;5046262;28;20202;-88
2023/10/05 03:44:07;;;;;;;4.20;2.33;;;;;;;;;;5045686;28;20190;-90
2023/10/05 03:46:33;;;;;;;2.50;2.30;;;;;;;;;;5045492;28;20188;-89
2023/10/05 03:49:06;;;;;;;3.13;2.50;;;;;;;;;;5047260;28;20224;-89
2023/10/05 03:51:32;;;;;;;2.30;1.97;;;;;;;;;;5045925;28;20275;-90
2023/10/05 03:53:57;;;;;;;2.40;2.20;;;;;;;;;;5042921;28;20271;-87
2023/10/05 03:56:25;;;;;;;2.10;1.87;;;;;;;;;;5047679;28;20210;-88
2023/10/05 03:58:53;;;;;;;5.10;2.13;;;;;;;;;;5047193;28;20199;-89
2023/10/05 04:01:19;;;;;;;3.60;2.20;;;;;;;;;;5045643;28;20181;-88
2023/10/05 04:03:46;;;;;;;4.33;2.30;;;;;;;;;;5045398;28;20210;-89
2023/10/05 04:06:17;;;;;;;6.33;2.00;;;;;;;;;;5049604;28;20174;-89
2023/10/05 04:08:48;;;;;;;2.83;1.73;;;;;;;;;;5050763;28;20195;-90
2023/10/05 04:11:13;;;;;;;4.77;2.10;;;;;;;;;;5047597;28;20175;-89
2023/10/05 04:13:38;;;;;;;4.30;1.80;;;;;;;;;;5047003;28;20195;-89
2023/10/05 04:16:08;;;;;;;3.10;2.33;;;;;;;;;;5046889;28;20211;-89
2023/10/05 04:18:34;;;;;;;5.27;2.30;;;;;;;;;;5045339;28;20176;-89
2023/10/05 04:20:59;;;;;;;3.07;2.13;;;;;;;;;;5047468;28;20172;-89
2023/10/05 04:23:28;;;;;;;4.53;2.10;;;;;;;;;;5048699;28;20242;-90
2023/10/05 04:25:55;;;;;;;5.27;2.20;;;;;;;;;;5046251;28;20179;-89
2023/10/05 04:28:40;;;;;;;3.43;2.13;;;;;;;;;;5049105;28;20205;-88
2023/10/05 04:31:11;;;;;;;2.67;1.80;;;;;;;;;;5045544;28;20265;-88
2023/10/05 04:33:39;;;;;;;4.40;2.47;;;;;;;;;;5044030;28;20228;-89
2023/10/05 04:36:05;;;;;;;4.57;2.20;;;;;;;;;;5046672;28;20180;-89
2023/10/05 04:38:30;;;;;;;6.13;2.40;;;;;;;;;;5049432;28;20184;-89
2023/10/05 04:40:56;;;;;;;2.83;1.80;;;;;;;;;;5039889;28;20184;-89
2023/10/05 04:43:22;;;;;;;4.03;2.17;;;;;;;;;;5045440;28;20179;-88
2023/10/05 04:45:47;;;;;;;3.00;1.97;;;;;;;;;;5043941;28;20372;-88
2023/10/05 04:48:12;;;;;;;4.03;2.20;;;;;;;;;;5047093;28;20176;-88
2023/10/05 04:50:40;;;;;;;5.83;2.53;;;;;;;;;;5048989;28;20286;-89
2023/10/05 04:53:09;;;;;;;6.93;3.13;;;;;;;;;;5049707;28;20207;-89
2023/10/05 04:55:41;;;;;;;4.27;2.60;;;;;;;;;;5049712;28;20178;-90
2023/10/05 04:58:24;;;;;;;5.20;2.57;;;;;;;;;;5042107;28;20287;-88
2023/10/05 05:01:04;;;;;;;7.07;2.80;;;;;;;;;;5043628;28;20178;-89
2023/10/05 05:03:47;;;;;;;6.73;3.87;;;;;;;;;;5039885;28;20539;-89
2023/10/05 05:06:13;;;;;;;4.17;2.47;;;;;;;;;;5043802;28;20198;-89
2023/10/05 05:08:41;;;;;;;4.70;2.50;;;;;;;;;;5048475;28;20390;-88
2023/10/05 05:11:11;;;;;;;4.20;2.40;;;;;;;;;;5040743;28;20186;-88
2023/10/05 05:13:38;;;;;;;6.53;3.13;;;;;;;;;;5049813;28;20232;-88
2023/10/05 05:16:05;;;;;;;5.07;2.33;;;;;;;;;;5049861;28;20382;-88
2023/10/05 05:18:30;;;;;;;8.03;2.30;;;;;;;;;;5048317;28;20230;-88
2023/10/05 05:20:55;;;;;;;4.67;2.17;;;;;;;;;;5048654;28;20180;-88
2023/10/05 05:23:20;;;;;;;9.17;3.50;;;;;;;;;;5048719;28;20179;-88
2023/10/05 05:25:51;;;;;;;6.37;2.83;;;;;;;;;;5047421;28;20211;-88
2023/10/05 05:28:16;;;;;;;6.40;2.93;;;;;;;;;;5043089;28;20192;-89
2023/10/05 05:30:42;;;;;;;3.83;2.13;;;;;;;;;;5041719;28;20197;-89
2023/10/05 05:33:10;;;;;;;7.73;5.53;;;;;;;;;;5042190;28;20184;-88
2023/10/05 05:35:35;;;;;;;8.20;2.73;;;;;;;;;;5047644;28;20267;-88
2023/10/05 05:38:02;;;;;;;10.97;3.60;;;;;;;;;;5046140;28;20276;-89
2023/10/05 05:40:29;;;;;;;5.03;2.20;;;;;;;;;;5041666;28;20189;-89
2023/10/05 05:42:56;;;;;;;5.33;2.57;;;;;;;;;;5044558;28;20244;-89
2023/10/05 05:45:21;;;;;;;8.73;3.47;;;;;;;;;;5042749;28;20228;-89
2023/10/05 05:47:47;;;;;;;5.70;2.60;;;;;;;;;;5038168;28;20188;-89
2023/10/05 05:50:17;;;;;;;18.43;4.07;;;;;;;;;;5036569;28;20254;-88
2023/10/05 05:52:50;;;;;;;6.03;2.80;;;;;;;;;;5038915;28;20180;-89
2023/10/05 05:55:21;;;;;;;5.23;2.80;;;;;;;;;;5037719;28;20179;-89
2023/10/05 05:57:47;;;;;;;4.20;2.50;;;;;;;;;;5042056;28;20385;-88
2023/10/05 06:00:12;;;;;;;6.93;2.60;;;;;;;;;;5042122;28;20181;-88
2023/10/05 06:02:40;;;;;;;5.93;3.10;;;;;;;;;;5046153;28;20173;-89
2023/10/05 06:05:09;;;;;;;5.97;3.00;;;;;;;;;;5047133;28;20205;-89
2023/10/05 06:07:36;;;;;;;4.53;2.50;;;;;;;;;;5045048;28;20180;-89
2023/10/05 06:10:01;;;;;;;6.73;2.70;;;;;;;;;;5034806;28;20281;-89
2023/10/05 06:12:26;;;;;;;6.47;2.60;;;;;;;;;;5039122;28;20180;-88
2023/10/05 06:14:52;;;;;;;4.50;2.33;;;;;;;;;;5041173;28;20176;-88
2023/10/05 06:17:19;;;;;;;18.17;3.80;;;;;;;;;;5040951;28;20172;-89
2023/10/05 06:19:44;;;;;;;7.63;2.37;;;;;;;;;;5044962;28;20206;-88
2023/10/05 06:22:10;;;;;;;5.73;2.47;;;;;;;;;;5041183;28;20188;-89
2023/10/05 06:24:40;;;;;;;5.43;2.63;;;;;;;;;;5044308;28;20176;-91
2023/10/05 06:27:06;;;;;;;6.57;2.97;;;;;;;;;;5044299;28;20178;-89
2023/10/05 06:29:31;;;;;;;4.03;2.83;;;;;;;;;;5046569;28;20274;-88
2023/10/05 06:31:57;;;;;;;5.47;3.30;;;;;;;;;;5043638;28;20417;-88
2023/10/05 06:34:22;;;;;;;9.53;3.63;;;;;;;;;;5040204;28;20175;-89
2023/10/05 06:36:48;;;;;;;7.40;2.90;;;;;;;;;;5037716;28;20183;-88
2023/10/05 06:39:14;;;;;;;5.37;2.90;;;;;;;;;;5043740;28;20225;-89
2023/10/05 06:41:40;;;;;;;5.50;2.93;;;;;;;;;;5046492;28;20241;-89
2023/10/05 06:44:07;;;;;;;8.37;3.23;;;;;;;;;;5041398;28;20214;-87
2023/10/05 06:46:32;;;;;;;6.63;3.63;;;;;;;;;;5040939;28;20191;-89
2023/10/05 06:48:58;;;;;;;4.20;2.60;;;;;;;;;;5043946;28;20217;-88
2023/10/05 06:51:27;;;;;;;7.50;3.30;;;;;;;;;;5041331;28;20210;-89
2023/10/05 06:53:52;;;;;;;9.20;3.07;;;;;;;;;;5039783;28;20180;-89
2023/10/05 06:56:18;;;;;;;5.37;2.87;;;;;;;;;;5043212;28;20259;-87
2023/10/05 06:58:44;;;;;;;5.73;3.07;;;;;;;;;;5044430;28;20206;-89
2023/10/05 07:01:09;;;;;;;6.50;3.60;;;;;;;;;;5045797;28;20183;-88
2023/10/05 07:03:34;;;;;;;4.63;2.53;;;;;;;;;;5042076;28;20182;-89
2023/10/05 07:06:01;;;;;;;8.70;3.47;;;;;;;;;;5043725;28;20204;-89
2023/10/05 07:08:26;;;;;;;5.77;3.30;;;;;;;;;;5044988;28;20236;-90
2023/10/05 07:10:52;;;;;;;5.13;3.00;;;;;;;;;;5036474;28;20270;-89
2023/10/05 07:13:19;;;;;;;5.20;3.00;;;;;;;;;;5050539;28;20195;-89
2023/10/05 07:15:44;;;;;;;10.20;3.40;;;;;;;;;;5044370;28;20184;-89
2023/10/05 07:18:10;;;;;;;6.53;2.37;;;;;;;;;;5040336;28;20185;-88
2023/10/05 07:20:36;;;;;;;8.53;3.03;;;;;;;;;;5041930;28;20273;-89
2023/10/05 07:23:03;;;;;;;4.30;3.03;;;;;;;;;;5038179;28;20247;-89
2023/10/05 07:25:28;;;;;;;6.87;3.50;;;;;;;;;;5040859;28;20242;-90
2023/10/05 07:27:54;;;;;;;4.60;2.60;;;;;;;;;;5039512;28;20287;-89
2023/10/05 07:30:19;;;;;;;11.23;3.90;;;;;;;;;;5048422;28;20285;-89
2023/10/05 07:32:44;;;;;;;8.00;3.47;;;;;;;;;;5043210;28;20510;-89
2023/10/05 07:35:12;;;;;;;6.00;3.03;;;;;;;;;;5047454;28;20239;-89
2023/10/05 07:37:37;;;;;;;9.67;3.07;;;;;;;;;;5044191;28;20274;-89
2023/10/05 07:40:09;;;;;;;6.07;3.33;;;;;;;;;;5047997;28;20328;-89
2023/10/05 07:42:34;;;;;;;5.07;2.83;;;;;;;;;;5050719;28;20266;-88
2023/10/05 07:44:59;;;;;;;9.40;4.10;;;;;;;;;;5049267;28;22202;-88
2023/10/05 07:47:25;;;;;;;6.43;3.17;;;;;;;;;;5049722;28;20308;-89
2023/10/05 07:49:53;;;;;;;12.87;3.37;;;;;;;;;;5049980;28;20251;-89
2023/10/05 07:52:19;;;;;;;7.37;3.30;;;;;;;;;;5046454;28;20180;-89
2023/10/05 07:54:44;;;;;;;7.33;3.37;;;;;;;;;;5048336;28;20244;-88
2023/10/05 07:57:10;;;;;;;7.13;3.67;;;;;;;;;;5050374;28;20180;-88
2023/10/05 07:59:40;;;;;;;7.57;3.40;;;;;;;;;;5050679;28;20202;-89
2023/10/05 08:02:06;;;;;;;10.47;3.87;;;;;;;;;;5047170;28;20308;-89
2023/10/05 08:04:32;;;;;;;10.97;4.37;;;;;;;;;;5055077;28;20267;-89
2023/10/05 08:06:58;;;;;;;9.87;3.70;;;;;;;;;;5046803;28;20190;-88
2023/10/05 08:09:23;;;;;;;6.97;3.17;;;;;;;;;;5053814;28;20193;-92
2023/10/05 08:11:50;;;;;;;8.50;4.07;;;;;;;;;;5045558;28;20200;-89
2023/10/05 08:14:17;;;;;;;8.17;3.33;;;;;;;;;;5051377;28;20176;-89
2023/10/05 08:16:42;;;;;;;10.43;3.67;;;;;;;;;;5051490;28;20181;-89
2023/10/05 08:19:08;;;;;;;11.77;4.00;;;;;;;;;;5048820;28;20196;-89
2023/10/05 08:21:34;;;;;;;10.20;3.90;;;;;;;;;;5043665;28;20178;-89
2023/10/05 08:23:59;;;;;;;6.67;3.80;;;;;;;;;;5049084;28;20185;-90
2023/10/05 08:26:28;;;;;;;7.93;3.60;;;;;;;;;;5048692;28;20193;-89
2023/10/05 08:28:53;;;;;;;7.50;3.33;;;;;;;;;;5049015;28;20200;-89
2023/10/05 08:31:23;;;;;;;6.27;3.40;;;;;;;;;;5050984;28;20174;-88
2023/10/05 08:33:49;;;;;;;6.47;3.17;;;;;;;;;;5048771;28;20263;-89
2023/10/05 08:36:17;;;;;;;9.00;3.77;;;;;;;;;;5042320;28;20293;-90
2023/10/05 08:38:44;;;;;;;11.00;3.73;;;;;;;;;;5043803;28;20213;-90
2023/10/05 08:41:14;;;;;;;10.37;3.83;;;;;;;;;;5047315;28;20185;-89
2023/10/05 08:43:46;;;;;;;7.97;3.70;;;;;;;;;;5049611;28;20183;-89
2023/10/05 08:46:12;;;;;;;15.07;4.77;;;;;;;;;;5046918;28;20222;-88
2023/10/05 08:48:37;;;;;;;8.43;4.13;;;;;;;;;;5050230;28;20197;-88
2023/10/05 08:51:10;;;;;;;7.30;3.40;;;;;;;;;;5046334;28;20265;-89
2023/10/05 08:53:42;;;;;;;5.47;2.73;;;;;;;;;;5048650;28;20198;-89
2023/10/05 08:56:15;;;;;;;10.40;4.13;;;;;;;;;;5052393;28;20205;-90
2023/10/05 08:58:41;;;;;;;5.63;3.17;;;;;;;;;;5049869;28;20197;-89
2023/10/05 09:01:20;;;;;;;7.03;3.50;;;;;;;;;;5049696;28;20316;-88
2023/10/05 09:03:50;;;;;;;10.30;3.63;;;;;;;;;;5064738;28;20174;-89
2023/10/05 09:06:21;;;;;;;8.47;3.77;;;;;;;;;;5050123;28;20186;-90
2023/10/05 09:08:54;;;;;;;13.63;4.40;;;;;;;;;;5046531;28;20236;-89
2023/10/05 09:11:21;;;;;;;7.00;3.77;;;;;;;;;;5049519;28;20256;-89
2023/10/05 09:13:47;;;;;;;10.20;3.90;;;;;;;;;;5048377;28;20179;-88
2023/10/05 09:16:22;;;;;;;6.87;3.90;;;;;;;;;;5045764;28;20250;-89
2023/10/05 09:18:48;;;;;;;7.53;3.27;;;;;;;;;;5045827;28;20177;-88
2023/10/05 09:21:15;;;;;;;6.37;3.60;;;;;;;;;;5051833;28;20196;-89
2023/10/05 09:23:42;;;;;;;15.00;6.63;;;;;;;;;;5048125;28;20181;-90
2023/10/05 09:26:21;;;;;;;12.70;6.23;;;;;;;;;;5049552;28;20250;-91
2023/10/05 09:28:51;;;;;;;18.33;5.50;;;;;;;;;;5044223;28;20187;-90
2023/10/05 09:31:19;;;;;;;6.07;3.10;;;;;;;;;;5052615;28;20172;-89
2023/10/05 09:33:54;;;;;;;4.73;2.60;;;;;;;;;;5045911;28;20175;-89
2023/10/05 09:36:19;;;;;;;7.40;3.43;;;;;;;;;;5056142;28;20308;-90
2023/10/05 09:38:46;;;;;;;6.80;2.57;;;;;;;;;;5045796;28;20271;-91
2023/10/05 09:41:14;;;;;;;4.90;3.20;;;;;;;;;;5046708;28;20182;-90
2023/10/05 09:43:42;;;;;;;5.53;2.90;;;;;;;;;;5043875;28;20181;-89
2023/10/05 09:46:14;;;;;;;7.57;2.83;;;;;;;;;;5050502;28;20222;-90
2023/10/05 09:48:40;;;;;;;7.70;2.87;;;;;;;;;;5045271;28;20170;-89
2023/10/05 09:51:10;;;;;;;7.20;2.57;;;;;;;;;;5046998;28;20256;-90
2023/10/05 09:53:38;;;;;;;7.33;2.77;;;;;;;;;;5045911;28;20181;-89
2023/10/05 09:56:04;;;;;;;7.30;3.00;;;;;;;;;;5045323;28;20187;-89
2023/10/05 09:58:30;;;;;;;7.20;2.90;;;;;;;;;;5045267;28;20201;-90
2023/10/05 10:00:55;;;;;;;5.53;1.93;;;;;;;;;;5047170;28;20229;-91
2023/10/05 10:03:21;;;;;;;7.13;3.10;;;;;;;;;;5051110;28;20179;-89
2023/10/05 10:05:59;;;;;;;7.57;3.57;;;;;;;;;;5041271;28;20191;-90
2023/10/05 10:08:29;;;;;;;6.23;2.90;;;;;;;;;;5040781;28;20238;-90
2023/10/05 10:11:06;;;;;;;7.90;3.00;;;;;;;;;;5045249;28;20227;-91
2023/10/05 10:13:38;;;;;;;5.67;2.87;;;;;;;;;;5035936;28;20185;-89
2023/10/05 10:16:21;;;;;;;7.43;3.33;;;;;;;;;;5039966;28;20188;-90
2023/10/05 10:18:46;;;;;;;6.43;2.83;;;;;;;;;;5046994;28;20198;-90
2023/10/05 10:21:30;;;;;;;6.37;3.10;;;;;;;;;;5046092;28;20237;-90
2023/10/05 10:24:04;;;;;;;4.30;2.83;;;;;;;;;;5044683;28;20180;-90
2023/10/05 10:26:30;;;;;;;6.83;2.93;;;;;;;;;;5045761;28;20184;-90
2023/10/05 10:31:23;;;;;;;9.43;3.40;;;;;;;;;;5047705;28;20207;-89
2023/10/05 10:33:52;;;;;;;9.77;3.37;;;;;;;;;;5042110;28;20174;-89
2023/10/05 10:36:36;;;;;;;6.47;2.80;;;;;;;;;;5051659;28;20220;-89
2023/10/05 10:39:22;;;;;;;9.10;3.03;;;;;;;;;;5063971;28;20192;-90
2023/10/05 10:42:07;;;;;;;5.43;3.03;;;;;;;;;;5048222;28;20270;-90
2023/10/05 10:47:17;;;;;;;7.23;3.40;;;;;;;;;;5047120;28;20168;-89
2023/10/05 10:49:59;;;;;;;7.23;3.43;;;;;;;;;;5048004;28;20200;-88
2023/10/05 10:52:25;;;;;;;7.47;3.23;;;;;;;;;;5042985;28;20184;-89
2023/10/05 10:54:53;;;;;;;10.07;4.20;;;;;;;;;;5039854;28;20214;-89
2023/10/05 10:57:21;;;;;;;8.30;3.27;;;;;;;;;;5047574;28;20174;-90
2023/10/05 10:59:47;;;;;;;6.47;2.90;;;;;;;;;;5047846;28;20244;-89
2023/10/05 11:02:19;;;;;;;6.03;3.30;;;;;;;;;;5047694;28;20213;-90
2023/10/05 11:04:47;;;;;;;9.57;3.60;;;;;;;;;;5042343;28;20185;-91
2023/10/05 11:07:13;;;;;;;9.03;2.97;;;;;;;;;;5037661;28;20176;-91
2023/10/05 11:09:48;;;;;;;5.90;3.03;;;;;;;;;;5046116;28;20247;-91
2023/10/05 11:12:17;;;;;;;7.87;3.43;;;;;;;;;;5046308;28;20178;-90
2023/10/05 11:14:43;;;;;;;5.13;2.73;;;;;;;;;;5048276;28;20174;-91
2023/10/05 11:17:30;;;;;;;5.20;3.00;;;;;;;;;;5051219;28;20229;-89
2023/10/05 11:19:55;;;;;;;6.10;3.23;;;;;;;;;;5050425;28;20182;-90
2023/10/05 11:22:24;;;;;;;8.07;3.23;;;;;;;;;;5047179;28;20192;-90
2023/10/05 11:24:59;;;;;;;5.57;2.93;;;;;;;;;;5047482;28;20274;-90
2023/10/05 11:27:25;;;;;;;5.57;2.47;;;;;;;;;;5043624;28;20178;-90
2023/10/05 11:29:55;;;;;;;7.77;3.37;;;;;;;;;;5051838;28;20220;-91
2023/10/05 11:32:23;;;;;;;5.33;2.70;;;;;;;;;;5046703;28;20179;-89
2023/10/05 11:34:55;;;;;;;4.13;2.50;;;;;;;;;;5047161;28;20399;-91
2023/10/05 11:37:20;;;;;;;6.70;2.63;;;;;;;;;;5050760;28;20272;-90
2023/10/05 11:39:49;;;;;;;6.93;3.23;;;;;;;;;;5046732;28;20257;-90
2023/10/05 11:42:16;;;;;;;5.87;2.13;;;;;;;;;;5049967;28;20174;-89
2023/10/05 11:44:44;;;;;;;5.60;2.73;;;;;;;;;;5047886;28;20237;-91
2023/10/05 11:47:19;;;;;;;5.87;2.70;;;;;;;;;;5048677;28;20190;-91
2023/10/05 11:49:45;;;;;;;6.90;3.10;;;;;;;;;;5047582;28;20201;-90
2023/10/05 11:52:12;;;;;;;5.77;2.57;;;;;;;;;;5049105;28;20273;-91
2023/10/05 11:54:39;;;;;;;4.27;2.30;;;;;;;;;;5047552;28;20178;-90
2023/10/05 11:57:04;;;;;;;5.83;2.93;;;;;;;;;;5046386;28;20233;-89
2023/10/05 11:59:39;;;;;;;7.77;3.17;;;;;;;;;;5044497;28;20199;-89
2023/10/05 12:02:08;;;;;;;5.80;3.00;;;;;;;;;;5043986;28;20190;-90
2023/10/05 12:04:34;;;;;;;5.10;2.90;;;;;;;;;;5043360;28;20204;-90
2023/10/05 12:06:59;;;;;;;7.63;2.77;;;;;;;;;;5050136;28;20232;-90
2023/10/05 12:09:34;;;;;;;5.23;3.07;;;;;;;;;;5052494;28;20206;-91
2023/10/05 12:12:01;;;;;;;3.67;2.40;;;;;;;;;;5048032;28;20176;-91
2023/10/05 12:14:26;;;;;;;6.47;2.57;;;;;;;;;;5051181;28;20179;-91
2023/10/05 12:16:52;;;;;;;5.37;2.60;;;;;;;;;;5047137;28;20179;-89
2023/10/05 12:19:27;;;;;;;5.87;3.00;;;;;;;;;;5049612;28;20194;-90
2023/10/05 12:21:53;;;;;;;4.83;2.73;;;;;;;;;;5047020;28;20275;-90
2023/10/05 12:24:18;;;;;;;8.47;3.37;;;;;;;;;;5051621;28;20175;-90
2023/10/05 12:26:44;;;;;;;4.47;2.60;;;;;;;;;;5050890;28;20180;-88
2023/10/05 12:29:12;;;;;;;7.93;3.83;;;;;;;;;;5049853;28;20300;-89
2023/10/05 12:31:41;;;;;;;5.07;2.97;;;;;;;;;;5049366;28;20194;-90
2023/10/05 12:34:14;;;;;;;5.17;3.50;;;;;;;;;;5046997;28;20208;-89
2023/10/05 12:36:40;;;;;;;6.57;2.70;;;;;;;;;;5050360;28;20250;-90
2023/10/05 12:39:10;;;;;;;5.97;3.40;;;;;;;;;;5047664;28;20275;-89
2023/10/05 12:41:40;;;;;;;6.80;3.00;;;;;;;;;;5042474;28;20172;-91
2023/10/05 12:44:09;;;;;;;6.50;2.87;;;;;;;;;;5047581;28;20184;-89
2023/10/05 12:46:39;;;;;;;5.97;2.90;;;;;;;;;;5047071;28;20188;-91
2023/10/05 12:49:07;;;;;;;6.40;2.77;;;;;;;;;;5040413;28;20502;-90
2023/10/05 12:51:34;;;;;;;8.33;3.20;;;;;;;;;;5050716;28;20204;-91
2023/10/05 12:53:59;;;;;;;7.20;4.10;;;;;;;;;;5045872;28;20171;-90
2023/10/05 12:56:25;;;;;;;6.17;2.83;;;;;;;;;;5042257;28;20170;-90
2023/10/05 12:58:50;;;;;;;5.33;3.07;;;;;;;;;;5048464;28;20217;-90
2023/10/05 13:01:15;;;;;;;3.97;2.43;;;;;;;;;;5044998;28;20185;-90
2023/10/05 13:03:40;;;;;;;3.47;2.20;;;;;;;;;;5049355;28;20180;-91
2023/10/05 13:06:10;;;;;;;6.13;3.80;;;;;;;;;;5049507;28;20208;-90
2023/10/05 13:08:36;;;;;;;17.27;4.53;;;;;;;;;;5050673;28;20170;-91
2023/10/05 13:11:03;;;;;;;7.40;2.77;;;;;;;;;;5044966;28;20267;-91
2023/10/05 13:13:29;;;;;;;6.23;3.13;;;;;;;;;;5043431;28;20256;-91
2023/10/05 13:15:54;;;;;;;4.73;2.83;;;;;;;;;;5041266;28;20273;-91
2023/10/05 13:18:19;;;;;;;7.83;3.73;;;;;;;;;;5045152;28;20166;-90
2023/10/05 13:20:47;;;;;;;7.97;3.80;;;;;;;;;;5048477;28;20170;-92
2023/10/05 13:23:13;;;;;;;4.53;3.07;;;;;;;;;;5049132;28;21707;-90
2023/10/05 13:25:39;;;;;;;6.57;3.17;;;;;;;;;;5051854;28;20201;-90
2023/10/05 13:28:05;;;;;;;5.17;2.97;;;;;;;;;;5051516;28;20199;-89
2023/10/05 13:30:40;;;;;;;4.23;2.47;;;;;;;;;;5045063;28;20198;-88
2023/10/05 13:33:13;;;;;;;6.20;2.70;;;;;;;;;;5047947;28;20251;-90
2023/10/05 13:35:38;;;;;;;6.97;2.73;;;;;;;;;;5047845;28;20170;-90
2023/10/05 13:38:07;;;;;;;5.40;2.80;;;;;;;;;;5047193;28;20174;-90
2023/10/05 13:40:34;;;;;;;8.40;3.43;;;;;;;;;;5049619;28;20184;-89
2023/10/05 13:43:00;;;;;;;8.17;3.53;;;;;;;;;;5046916;28;20244;-90
2023/10/05 13:45:25;;;;;;;4.70;2.87;;;;;;;;;;5046437;28;20230;-90
2023/10/05 13:47:52;;;;;;;11.80;5.37;;;;;;;;;;5046990;28;20194;-89
2023/10/05 13:50:18;;;;;;;6.23;4.37;;;;;;;;;;5040422;28;20252;-90
2023/10/05 13:52:45;;;;;;;11.17;3.80;;;;;;;;;;5047281;28;20182;-90
2023/10/05 13:55:14;;;;;;;6.63;3.23;;;;;;;;;;5043373;28;20189;-89
2023/10/05 13:57:39;;;;;;;7.70;3.53;;;;;;;;;;5047655;28;20500;-89
2023/10/05 14:00:17;;;;;;;4.70;2.60;;;;;;;;;;5046502;28;20233;-90
2023/10/05 14:02:43;;;;;;;5.73;3.03;;;;;;;;;;5046045;28;20192;-91
2023/10/05 14:05:08;;;;;;;5.97;2.80;;;;;;;;;;5043849;28;20192;-90
2023/10/05 14:07:34;;;;;;;6.80;3.23;;;;;;;;;;5044067;28;20204;-90
2023/10/05 14:09:59;;;;;;;6.10;2.80;;;;;;;;;;5036392;28;20248;-92
2023/10/05 14:12:25;;;;;;;4.93;2.87;;;;;;;;;;5041780;28;20180;-91
2023/10/05 14:14:50;;;;;;;6.97;3.80;;;;;;;;;;5044152;28;20194;-90
2023/10/05 14:17:16;;;;;;;4.77;2.83;;;;;;;;;;5046437;28;20184;-90
2023/10/05 14:19:42;;;;;;;3.87;2.47;;;;;;;;;;5049813;28;20215;-90
2023/10/05 14:22:09;;;;;;;4.57;3.37;;;;;;;;;;5039643;28;20189;-91
2023/10/05 14:24:36;;;;;;;6.10;2.80;;;;;;;;;;5042939;28;20268;-90
2023/10/05 14:27:04;;;;;;;5.80;3.27;;;;;;;;;;5038054;28;20195;-91
2023/10/05 14:29:36;;;;;;;4.27;3.03;;;;;;;;;;5045058;28;20228;-89
2023/10/05 14:32:04;;;;;;;3.83;3.00;;;;;;;;;;5044578;28;20291;-89
2023/10/05 14:34:33;;;;;;;5.37;3.23;;;;;;;;;;5043058;28;20183;-90
2023/10/05 14:36:59;;;;;;;5.83;3.07;;;;;;;;;;5048137;28;20182;-91
2023/10/05 14:39:32;;;;;;;6.27;3.13;;;;;;;;;;5047793;28;20184;-90
2023/10/05 14:42:00;;;;;;;5.40;3.33;;;;;;;;;;5046340;28;20213;-90
2023/10/05 14:44:28;;;;;;;5.20;3.00;;;;;;;;;;5043632;28;20230;-90
2023/10/05 14:46:54;;;;;;;5.30;2.87;;;;;;;;;;5041905;28;20195;-91
2023/10/05 14:49:21;;;;;;;6.30;2.90;;;;;;;;;;5037738;28;20274;-90
2023/10/05 14:51:50;;;;;;;7.23;2.77;;;;;;;;;;5047631;28;20192;-91
2023/10/05 14:54:16;;;;;;;10.83;3.30;;;;;;;;;;5042756;28;20186;-91